KMSS/MSS METAR and TAF weather

Enter ICAO airport designator
Station Type Date Time Source
KMSS METAR 2022/05/23 14:53 UTC NOAA

KMSS 231453Z AUTO 07007KT 10SM CLR 13/03 A3034 RMK AO2 SLP277 T01280028 50005


Station Type Date Time Source
KMSS Decoded METAR 2022/05/23 14:53 UTC NOAA

MASSENA INTERNATIONAL -RICHARDS FLD, NY, United States (KMSS) 44-56N 074-51W 66M
May 23, 2022 - 10:53 AM EDT / 2022.05.23 1453 UTC
Wind: from the ENE (070 degrees) at 8 MPH (7 KT):0
Visibility: 10 mile(s):0
Sky conditions: clear
Temperature: 55.0 F (12.8 C)
Dew Point: 37.0 F (2.8 C)
Relative Humidity: 50%
Pressure (altimeter): 30.34 in. Hg (1027 hPa)
Pressure tendency: 0.01 inches (0.5 hPa) higher than three hours ago
ob: KMSS 231453Z AUTO 07007KT 10SM CLR 13/03 A3034 RMK AO2 SLP277 T01280028 50005
cycle: 15

Station Type Date Time Source
KMSS TAF 2022/05/23 12:30 UTC NOAA

TAF KMSS 231129Z 2312/2412 VRB04KT P6SM SCT250

Example: see airport list